sensor_id;sensor_type;location;lat;lon;timestamp;temperature;humidity
15997;DHT22;8103;51.340;12.326;2023-06-24T00:00:12;16.80;99.90
15997;DHT22;8103;51.340;12.326;2023-06-24T00:02:40;16.70;99.90
15997;DHT22;8103;51.340;12.326;2023-06-24T00:05:10;16.80;99.90
15997;DHT22;8103;51.340;12.326;2023-06-24T00:07:37;16.70;99.90
15997;DHT22;8103;51.340;12.326;2023-06-24T00:10:12;16.70;99.90
15997;DHT22;8103;51.340;12.326;2023-06-24T00:12:40;16.60;99.90
15997;DHT22;8103;51.340;12.326;2023-06-24T00:15:08;16.60;99.90
15997;DHT22;8103;51.340;12.326;2023-06-24T00:17:38;16.70;99.90
15997;DHT22;8103;51.340;12.326;2023-06-24T00:20:06;16.60;99.90
15997;DHT22;8103;51.340;12.326;2023-06-24T00:22:38;16.60;99.90
15997;DHT22;8103;51.340;12.326;2023-06-24T00:25:15;16.60;99.90
15997;DHT22;8103;51.340;12.326;2023-06-24T00:27:42;16.70;99.90
15997;DHT22;8103;51.340;12.326;2023-06-24T00:30:10;16.60;99.90
15997;DHT22;8103;51.340;12.326;2023-06-24T00:32:38;16.60;99.90
15997;DHT22;8103;51.340;12.326;2023-06-24T00:35:07;16.60;99.90
15997;DHT22;8103;51.340;12.326;2023-06-24T00:37:35;16.60;99.90
15997;DHT22;8103;51.340;12.326;2023-06-24T00:40:10;16.50;99.90
15997;DHT22;8103;51.340;12.326;2023-06-24T00:42:44;16.50;99.90
15997;DHT22;8103;51.340;12.326;2023-06-24T00:45:12;16.70;99.90
15997;DHT22;8103;51.340;12.326;2023-06-24T00:47:40;16.40;99.90
15997;DHT22;8103;51.340;12.326;2023-06-24T00:50:08;16.40;99.90
15997;DHT22;8103;51.340;12.326;2023-06-24T00:52:38;16.40;99.90
15997;DHT22;8103;51.340;12.326;2023-06-24T00:55:10;16.40;99.90
15997;DHT22;8103;51.340;12.326;2023-06-24T00:57:40;16.30;99.90
15997;DHT22;8103;51.340;12.326;2023-06-24T01:00:13;16.20;99.90
15997;DHT22;8103;51.340;12.326;2023-06-24T01:02:43;16.30;99.90
15997;DHT22;8103;51.340;12.326;2023-06-24T01:05:14;16.30;99.90
15997;DHT22;8103;51.340;12.326;2023-06-24T01:07:42;16.30;99.90
15997;DHT22;8103;51.340;12.326;2023-06-24T01:10:10;16.20;99.90
15997;DHT22;8103;51.340;12.326;2023-06-24T01:12:40;16.20;99.90
15997;DHT22;8103;51.340;12.326;2023-06-24T01:15:08;16.20;99.90
15997;DHT22;8103;51.340;12.326;2023-06-24T01:20:55;16.20;99.90
15997;DHT22;8103;51.340;12.326;2023-06-24T01:23:36;16.10;99.90
15997;DHT22;8103;51.340;12.326;2023-06-24T01:32:32;16.00;99.90
15997;DHT22;8103;51.340;12.326;2023-06-24T01:35:09;16.00;99.90
15997;DHT22;8103;51.340;12.326;2023-06-24T01:37:51;15.90;99.90
15997;DHT22;8103;51.340;12.326;2023-06-24T01:40:27;16.00;99.90
15997;DHT22;8103;51.340;12.326;2023-06-24T01:42:59;15.90;99.90
15997;DHT22;8103;51.340;12.326;2023-06-24T01:45:34;15.90;99.90
15997;DHT22;8103;51.340;12.326;2023-06-24T01:48:12;15.90;99.90
15997;DHT22;8103;51.340;12.326;2023-06-24T01:50:48;15.90;99.90
15997;DHT22;8103;51.340;12.326;2023-06-24T01:53:24;15.80;99.90
15997;DHT22;8103;51.340;12.326;2023-06-24T01:55:54;15.90;99.90
15997;DHT22;8103;51.340;12.326;2023-06-24T01:58:26;15.80;99.90
15997;DHT22;8103;51.340;12.326;2023-06-24T02:00:53;15.80;99.90
15997;DHT22;8103;51.340;12.326;2023-06-24T02:03:21;15.70;99.90
15997;DHT22;8103;51.340;12.326;2023-06-24T02:05:50;15.80;99.90
15997;DHT22;8103;51.340;12.326;2023-06-24T02:08:20;15.70;99.90
15997;DHT22;8103;51.340;12.326;2023-06-24T02:10:49;15.70;99.90
15997;DHT22;8103;51.340;12.326;2023-06-24T02:13:18;15.70;99.90
15997;DHT22;8103;51.340;12.326;2023-06-24T02:15:47;15.70;99.90
15997;DHT22;8103;51.340;12.326;2023-06-24T02:18:16;15.70;99.90
15997;DHT22;8103;51.340;12.326;2023-06-24T02:20:44;15.60;99.90
15997;DHT22;8103;51.340;12.326;2023-06-24T02:23:14;15.60;99.90
15997;DHT22;8103;51.340;12.326;2023-06-24T02:25:42;15.60;99.90
15997;DHT22;8103;51.340;12.326;2023-06-24T02:28:10;15.60;99.90
15997;DHT22;8103;51.340;12.326;2023-06-24T02:30:38;15.50;99.90
15997;DHT22;8103;51.340;12.326;2023-06-24T02:33:06;15.50;99.90
15997;DHT22;8103;51.340;12.326;2023-06-24T02:35:34;15.50;99.90
15997;DHT22;8103;51.340;12.326;2023-06-24T02:38:01;15.40;99.90
15997;DHT22;8103;51.340;12.326;2023-06-24T02:40:30;15.50;99.90
15997;DHT22;8103;51.340;12.326;2023-06-24T02:42:59;15.40;99.90
15997;DHT22;8103;51.340;12.326;2023-06-24T02:45:26;15.40;99.90
15997;DHT22;8103;51.340;12.326;2023-06-24T02:47:55;15.40;99.90
15997;DHT22;8103;51.340;12.326;2023-06-24T02:50:23;15.40;99.90
15997;DHT22;8103;51.340;12.326;2023-06-24T02:52:52;15.30;99.90
15997;DHT22;8103;51.340;12.326;2023-06-24T02:55:21;15.40;99.90
15997;DHT22;8103;51.340;12.326;2023-06-24T02:57:48;15.30;99.90
15997;DHT22;8103;51.340;12.326;2023-06-24T03:00:17;15.30;99.90
15997;DHT22;8103;51.340;12.326;2023-06-24T03:02:45;15.30;99.90
15997;DHT22;8103;51.340;12.326;2023-06-24T03:05:16;15.20;99.90
15997;DHT22;8103;51.340;12.326;2023-06-24T03:07:45;15.20;99.90
15997;DHT22;8103;51.340;12.326;2023-06-24T03:10:12;15.30;99.90
15997;DHT22;8103;51.340;12.326;2023-06-24T03:12:41;15.30;99.90
15997;DHT22;8103;51.340;12.326;2023-06-24T03:15:08;15.30;99.90
15997;DHT22;8103;51.340;12.326;2023-06-24T03:17:36;15.30;99.90
15997;DHT22;8103;51.340;12.326;2023-06-24T03:20:04;15.30;99.90
15997;DHT22;8103;51.340;12.326;2023-06-24T03:22:32;15.30;99.90
15997;DHT22;8103;51.340;12.326;2023-06-24T03:25:00;15.30;99.90
15997;DHT22;8103;51.340;12.326;2023-06-24T03:27:27;15.20;99.90
15997;DHT22;8103;51.340;12.326;2023-06-24T03:29:53;15.30;99.90
15997;DHT22;8103;51.340;12.326;2023-06-24T03:32:20;15.30;99.90
15997;DHT22;8103;51.340;12.326;2023-06-24T03:34:47;15.30;99.90
15997;DHT22;8103;51.340;12.326;2023-06-24T03:37:14;15.30;99.90
15997;DHT22;8103;51.340;12.326;2023-06-24T03:39:42;15.20;99.90
15997;DHT22;8103;51.340;12.326;2023-06-24T03:42:10;15.40;99.90
15997;DHT22;8103;51.340;12.326;2023-06-24T03:44:37;15.30;99.90
15997;DHT22;8103;51.340;12.326;2023-06-24T03:47:04;15.20;99.90
15997;DHT22;8103;51.340;12.326;2023-06-24T03:49:31;15.30;99.90
15997;DHT22;8103;51.340;12.326;2023-06-24T03:51:58;15.30;99.90
15997;DHT22;8103;51.340;12.326;2023-06-24T03:54:25;15.30;99.90
15997;DHT22;8103;51.340;12.326;2023-06-24T03:56:52;15.30;99.90
15997;DHT22;8103;51.340;12.326;2023-06-24T03:59:18;15.10;99.90
15997;DHT22;8103;51.340;12.326;2023-06-24T04:01:46;15.30;99.90
15997;DHT22;8103;51.340;12.326;2023-06-24T04:04:13;15.30;99.90
15997;DHT22;8103;51.340;12.326;2023-06-24T04:06:40;15.30;99.90
15997;DHT22;8103;51.340;12.326;2023-06-24T04:09:07;15.40;99.90
15997;DHT22;8103;51.340;12.326;2023-06-24T04:11:35;15.30;99.90
15997;DHT22;8103;51.340;12.326;2023-06-24T04:14:02;15.30;99.90
15997;DHT22;8103;51.340;12.326;2023-06-24T04:16:33;15.40;99.90
15997;DHT22;8103;51.340;12.326;2023-06-24T04:19:00;15.40;99.90
15997;DHT22;8103;51.340;12.326;2023-06-24T04:21:27;15.50;99.90
15997;DHT22;8103;51.340;12.326;2023-06-24T04:23:54;15.50;99.90
15997;DHT22;8103;51.340;12.326;2023-06-24T04:26:21;15.50;99.90
15997;DHT22;8103;51.340;12.326;2023-06-24T04:28:47;15.60;99.90
15997;DHT22;8103;51.340;12.326;2023-06-24T04:31:14;15.60;99.90
15997;DHT22;8103;51.340;12.326;2023-06-24T04:33:42;15.60;99.90
15997;DHT22;8103;51.340;12.326;2023-06-24T04:36:08;15.80;99.90
15997;DHT22;8103;51.340;12.326;2023-06-24T04:38:36;15.70;99.90
15997;DHT22;8103;51.340;12.326;2023-06-24T04:41:02;15.80;99.90
15997;DHT22;8103;51.340;12.326;2023-06-24T04:43:30;15.80;99.90
15997;DHT22;8103;51.340;12.326;2023-06-24T04:45:56;15.90;99.90
15997;DHT22;8103;51.340;12.326;2023-06-24T04:48:24;15.90;99.90
15997;DHT22;8103;51.340;12.326;2023-06-24T04:50:51;15.90;99.90
15997;DHT22;8103;51.340;12.326;2023-06-24T04:53:20;16.00;99.90
15997;DHT22;8103;51.340;12.326;2023-06-24T04:55:47;16.00;99.90
15997;DHT22;8103;51.340;12.326;2023-06-24T04:58:14;16.10;99.90
15997;DHT22;8103;51.340;12.326;2023-06-24T05:00:41;16.10;99.90
15997;DHT22;8103;51.340;12.326;2023-06-24T05:03:09;16.20;99.90
15997;DHT22;8103;51.340;12.326;2023-06-24T05:05:36;16.20;99.90
15997;DHT22;8103;51.340;12.326;2023-06-24T05:08:03;16.20;99.90
15997;DHT22;8103;51.340;12.326;2023-06-24T05:10:30;16.10;99.90
15997;DHT22;8103;51.340;12.326;2023-06-24T05:12:57;16.30;99.90
15997;DHT22;8103;51.340;12.326;2023-06-24T05:15:24;16.20;99.90
15997;DHT22;8103;51.340;12.326;2023-06-24T05:17:51;16.30;99.90
15997;DHT22;8103;51.340;12.326;2023-06-24T05:20:19;16.40;99.90
15997;DHT22;8103;51.340;12.326;2023-06-24T05:22:46;16.40;99.90
15997;DHT22;8103;51.340;12.326;2023-06-24T05:25:13;16.50;99.90
15997;DHT22;8103;51.340;12.326;2023-06-24T05:27:40;16.50;99.90
15997;DHT22;8103;51.340;12.326;2023-06-24T05:30:08;16.60;99.90
15997;DHT22;8103;51.340;12.326;2023-06-24T05:32:35;16.70;99.90
15997;DHT22;8103;51.340;12.326;2023-06-24T05:35:02;16.80;99.90
15997;DHT22;8103;51.340;12.326;2023-06-24T05:37:29;16.90;99.90
15997;DHT22;8103;51.340;12.326;2023-06-24T05:39:56;17.10;99.90
15997;DHT22;8103;51.340;12.326;2023-06-24T05:42:25;17.00;99.90
15997;DHT22;8103;51.340;12.326;2023-06-24T05:44:52;17.10;99.90
15997;DHT22;8103;51.340;12.326;2023-06-24T05:47:19;17.20;99.90
15997;DHT22;8103;51.340;12.326;2023-06-24T05:49:48;17.30;99.90
15997;DHT22;8103;51.340;12.326;2023-06-24T05:52:15;17.40;99.90
15997;DHT22;8103;51.340;12.326;2023-06-24T05:54:42;17.50;99.90
15997;DHT22;8103;51.340;12.326;2023-06-24T05:57:08;17.70;99.90
15997;DHT22;8103;51.340;12.326;2023-06-24T05:59:36;17.80;99.90
15997;DHT22;8103;51.340;12.326;2023-06-24T06:02:04;17.90;99.90
15997;DHT22;8103;51.340;12.326;2023-06-24T06:04:32;18.00;99.90
15997;DHT22;8103;51.340;12.326;2023-06-24T06:06:59;18.10;99.90
15997;DHT22;8103;51.340;12.326;2023-06-24T06:09:26;18.30;99.90
15997;DHT22;8103;51.340;12.326;2023-06-24T06:11:54;18.40;99.90
15997;DHT22;8103;51.340;12.326;2023-06-24T06:14:21;18.40;99.90
15997;DHT22;8103;51.340;12.326;2023-06-24T06:16:47;18.30;99.90
15997;DHT22;8103;51.340;12.326;2023-06-24T06:19:14;18.30;99.90
15997;DHT22;8103;51.340;12.326;2023-06-24T06:21:41;18.40;99.90
15997;DHT22;8103;51.340;12.326;2023-06-24T06:24:09;18.30;99.90
15997;DHT22;8103;51.340;12.326;2023-06-24T06:26:44;18.30;99.90
15997;DHT22;8103;51.340;12.326;2023-06-24T06:29:11;18.30;99.90
15997;DHT22;8103;51.340;12.326;2023-06-24T06:35:38;18.50;99.90
15997;DHT22;8103;51.340;12.326;2023-06-24T06:38:05;18.70;99.90
15997;DHT22;8103;51.340;12.326;2023-06-24T06:40:32;18.80;99.90
15997;DHT22;8103;51.340;12.326;2023-06-24T06:42:59;18.90;99.90
15997;DHT22;8103;51.340;12.326;2023-06-24T06:45:26;19.00;99.90
15997;DHT22;8103;51.340;12.326;2023-06-24T06:47:55;19.20;99.90
15997;DHT22;8103;51.340;12.326;2023-06-24T06:50:22;19.30;99.90
15997;DHT22;8103;51.340;12.326;2023-06-24T06:52:49;19.30;99.90
15997;DHT22;8103;51.340;12.326;2023-06-24T06:55:16;19.20;99.90
15997;DHT22;8103;51.340;12.326;2023-06-24T06:57:43;19.10;99.90
15997;DHT22;8103;51.340;12.326;2023-06-24T07:00:10;19.30;99.90
15997;DHT22;8103;51.340;12.326;2023-06-24T07:02:37;19.60;99.90
15997;DHT22;8103;51.340;12.326;2023-06-24T07:05:04;19.80;99.90
15997;DHT22;8103;51.340;12.326;2023-06-24T07:07:31;20.10;99.90
15997;DHT22;8103;51.340;12.326;2023-06-24T07:09:59;20.40;99.90
15997;DHT22;8103;51.340;12.326;2023-06-24T07:12:26;20.60;99.90
15997;DHT22;8103;51.340;12.326;2023-06-24T07:14:52;20.90;99.90
15997;DHT22;8103;51.340;12.326;2023-06-24T07:17:19;21.10;99.90
15997;DHT22;8103;51.340;12.326;2023-06-24T07:19:46;21.00;99.90
15997;DHT22;8103;51.340;12.326;2023-06-24T07:22:14;20.80;99.90
15997;DHT22;8103;51.340;12.326;2023-06-24T07:24:41;20.50;99.90
15997;DHT22;8103;51.340;12.326;2023-06-24T07:27:08;20.40;99.90
15997;DHT22;8103;51.340;12.326;2023-06-24T07:29:35;20.60;99.90
15997;DHT22;8103;51.340;12.326;2023-06-24T07:32:03;20.80;99.90
15997;DHT22;8103;51.340;12.326;2023-06-24T07:34:30;20.90;99.90
15997;DHT22;8103;51.340;12.326;2023-06-24T07:36:57;21.00;99.90
15997;DHT22;8103;51.340;12.326;2023-06-24T07:39:27;20.90;99.90
15997;DHT22;8103;51.340;12.326;2023-06-24T07:41:53;20.90;99.90
15997;DHT22;8103;51.340;12.326;2023-06-24T07:44:20;20.90;99.90
15997;DHT22;8103;51.340;12.326;2023-06-24T07:46:47;20.80;99.90
15997;DHT22;8103;51.340;12.326;2023-06-24T07:49:18;20.60;99.90
15997;DHT22;8103;51.340;12.326;2023-06-24T07:51:45;20.50;99.90
15997;DHT22;8103;51.340;12.326;2023-06-24T07:54:11;20.60;99.90
15997;DHT22;8103;51.340;12.326;2023-06-24T07:56:38;20.50;99.90
15997;DHT22;8103;51.340;12.326;2023-06-24T07:59:05;20.90;99.90
15997;DHT22;8103;51.340;12.326;2023-06-24T08:01:32;21.10;99.90
15997;DHT22;8103;51.340;12.326;2023-06-24T08:03:59;21.50;99.90
15997;DHT22;8103;51.340;12.326;2023-06-24T08:06:26;21.60;99.90
15997;DHT22;8103;51.340;12.326;2023-06-24T08:08:53;21.70;99.90
15997;DHT22;8103;51.340;12.326;2023-06-24T08:11:20;21.90;99.90
15997;DHT22;8103;51.340;12.326;2023-06-24T08:13:48;21.70;99.90
15997;DHT22;8103;51.340;12.326;2023-06-24T08:16:16;21.50;99.90
15997;DHT22;8103;51.340;12.326;2023-06-24T08:18:44;21.30;99.90
15997;DHT22;8103;51.340;12.326;2023-06-24T08:21:12;21.40;99.90
15997;DHT22;8103;51.340;12.326;2023-06-24T08:23:39;21.70;99.90
15997;DHT22;8103;51.340;12.326;2023-06-24T08:26:07;22.20;99.90
15997;DHT22;8103;51.340;12.326;2023-06-24T08:28:42;22.30;99.90
15997;DHT22;8103;51.340;12.326;2023-06-24T08:31:09;22.30;99.90
15997;DHT22;8103;51.340;12.326;2023-06-24T08:33:36;22.30;99.90
15997;DHT22;8103;51.340;12.326;2023-06-24T08:36:03;22.40;99.90
15997;DHT22;8103;51.340;12.326;2023-06-24T08:38:30;22.50;99.90
15997;DHT22;8103;51.340;12.326;2023-06-24T08:40:57;22.50;99.50
15997;DHT22;8103;51.340;12.326;2023-06-24T08:43:25;22.90;98.30
15997;DHT22;8103;51.340;12.326;2023-06-24T08:45:52;23.00;98.00
15997;DHT22;8103;51.340;12.326;2023-06-24T08:48:20;22.90;97.50
15997;DHT22;8103;51.340;12.326;2023-06-24T08:50:51;22.90;96.80
15997;DHT22;8103;51.340;12.326;2023-06-24T08:53:21;23.10;96.40
15997;DHT22;8103;51.340;12.326;2023-06-24T08:55:49;23.70;94.90
15997;DHT22;8103;51.340;12.326;2023-06-24T08:58:20;24.10;93.70
15997;DHT22;8103;51.340;12.326;2023-06-24T09:00:48;24.50;93.80
15997;DHT22;8103;51.340;12.326;2023-06-24T09:03:14;24.70;93.10
15997;DHT22;8103;51.340;12.326;2023-06-24T09:05:41;25.00;92.70
15997;DHT22;8103;51.340;12.326;2023-06-24T09:08:10;25.70;91.70
15997;DHT22;8103;51.340;12.326;2023-06-24T09:10:38;25.90;90.00
15997;DHT22;8103;51.340;12.326;2023-06-24T09:13:06;25.60;88.40
15997;DHT22;8103;51.340;12.326;2023-06-24T09:15:35;25.20;88.90
15997;DHT22;8103;51.340;12.326;2023-06-24T09:18:03;25.20;89.80
15997;DHT22;8103;51.340;12.326;2023-06-24T09:20:32;25.20;90.30
15997;DHT22;8103;51.340;12.326;2023-06-24T09:23:01;25.30;90.40
15997;DHT22;8103;51.340;12.326;2023-06-24T09:25:31;25.30;90.30
15997;DHT22;8103;51.340;12.326;2023-06-24T09:28:01;25.10;90.50
15997;DHT22;8103;51.340;12.326;2023-06-24T09:30:28;24.80;91.70
15997;DHT22;8103;51.340;12.326;2023-06-24T09:37:02;25.30;88.10
15997;DHT22;8103;51.340;12.326;2023-06-24T09:39:39;26.50;85.90
15997;DHT22;8103;51.340;12.326;2023-06-24T09:42:09;27.50;85.60
15997;DHT22;8103;51.340;12.326;2023-06-24T09:44:37;28.00;81.80
15997;DHT22;8103;51.340;12.326;2023-06-24T09:47:04;28.20;81.90
15997;DHT22;8103;51.340;12.326;2023-06-24T09:49:31;28.70;84.90
15997;DHT22;8103;51.340;12.326;2023-06-24T09:51:59;29.40;90.40
15997;DHT22;8103;51.340;12.326;2023-06-24T09:54:28;29.40;90.20
15997;DHT22;8103;51.340;12.326;2023-06-24T09:57:02;29.20;90.90
15997;DHT22;8103;51.340;12.326;2023-06-24T09:59:30;29.10;91.60
15997;DHT22;8103;51.340;12.326;2023-06-24T10:02:00;28.80;92.20
15997;DHT22;8103;51.340;12.326;2023-06-24T10:04:29;28.60;92.70
15997;DHT22;8103;51.340;12.326;2023-06-24T10:06:58;28.90;93.60
15997;DHT22;8103;51.340;12.326;2023-06-24T10:09:25;29.60;92.40
15997;DHT22;8103;51.340;12.326;2023-06-24T10:11:52;29.90;90.80
15997;DHT22;8103;51.340;12.326;2023-06-24T10:14:19;30.80;90.10
15997;DHT22;8103;51.340;12.326;2023-06-24T10:16:48;31.70;86.60
15997;DHT22;8103;51.340;12.326;2023-06-24T10:27:14;33.70;79.80
15997;DHT22;8103;51.340;12.326;2023-06-24T10:34:47;36.30;75.60
15997;DHT22;8103;51.340;12.326;2023-06-24T10:42:36;36.90;78.90
15997;DHT22;8103;51.340;12.326;2023-06-24T10:47:42;36.80;78.90
15997;DHT22;8103;51.340;12.326;2023-06-24T10:50:20;36.90;61.30
15997;DHT22;8103;51.340;12.326;2023-06-24T10:52:49;37.60;51.50
15997;DHT22;8103;51.340;12.326;2023-06-24T11:00:23;41.30;70.70
15997;DHT22;8103;51.340;12.326;2023-06-24T11:10:14;43.80;67.60
15997;DHT22;8103;51.340;12.326;2023-06-24T11:17:42;44.70;65.60
15997;DHT22;8103;51.340;12.326;2023-06-24T11:20:11;44.70;62.50
15997;DHT22;8103;51.340;12.326;2023-06-24T11:22:41;44.80;61.50
15997;DHT22;8103;51.340;12.326;2023-06-24T11:25:19;44.70;60.40
15997;DHT22;8103;51.340;12.326;2023-06-24T11:27:50;44.60;59.50
15997;DHT22;8103;51.340;12.326;2023-06-24T11:30:18;44.30;58.50
15997;DHT22;8103;51.340;12.326;2023-06-24T11:32:46;45.10;56.70
15997;DHT22;8103;51.340;12.326;2023-06-24T11:35:15;46.30;55.40
15997;DHT22;8103;51.340;12.326;2023-06-24T11:37:46;47.20;55.20
15997;DHT22;8103;51.340;12.326;2023-06-24T11:56:36;49.30;20.70
15997;DHT22;8103;51.340;12.326;2023-06-24T11:59:14;49.50;21.20
15997;DHT22;8103;51.340;12.326;2023-06-24T12:01:55;48.70;21.90
15997;DHT22;8103;51.340;12.326;2023-06-24T12:04:28;47.80;22.40
15997;DHT22;8103;51.340;12.326;2023-06-24T12:06:57;47.50;22.20
15997;DHT22;8103;51.340;12.326;2023-06-24T12:09:26;47.90;21.80
15997;DHT22;8103;51.340;12.326;2023-06-24T12:11:53;48.10;22.40
15997;DHT22;8103;51.340;12.326;2023-06-24T12:14:21;48.40;21.60
15997;DHT22;8103;51.340;12.326;2023-06-24T12:16:48;48.40;22.00
15997;DHT22;8103;51.340;12.326;2023-06-24T12:19:15;48.70;21.70
15997;DHT22;8103;51.340;12.326;2023-06-24T12:21:41;48.90;21.20
15997;DHT22;8103;51.340;12.326;2023-06-24T12:24:08;48.90;21.00
15997;DHT22;8103;51.340;12.326;2023-06-24T12:26:37;48.90;20.70
15997;DHT22;8103;51.340;12.326;2023-06-24T12:29:04;49.10;21.30
15997;DHT22;8103;51.340;12.326;2023-06-24T12:31:32;49.40;21.20
15997;DHT22;8103;51.340;12.326;2023-06-24T12:34:00;48.80;21.30
15997;DHT22;8103;51.340;12.326;2023-06-24T12:36:26;47.70;21.80
15997;DHT22;8103;51.340;12.326;2023-06-24T12:38:54;47.70;21.80
15997;DHT22;8103;51.340;12.326;2023-06-24T12:41:21;47.80;21.70
15997;DHT22;8103;51.340;12.326;2023-06-24T12:43:48;47.40;21.80
15997;DHT22;8103;51.340;12.326;2023-06-24T12:46:15;47.90;25.20
15997;DHT22;8103;51.340;12.326;2023-06-24T12:48:42;47.60;22.30
15997;DHT22;8103;51.340;12.326;2023-06-24T12:51:10;49.00;24.30
15997;DHT22;8103;51.340;12.326;2023-06-24T12:56:04;50.90;19.60
15997;DHT22;8103;51.340;12.326;2023-06-24T12:58:32;51.30;20.00
15997;DHT22;8103;51.340;12.326;2023-06-24T13:01:01;51.20;20.00
15997;DHT22;8103;51.340;12.326;2023-06-24T13:03:28;51.10;19.60
15997;DHT22;8103;51.340;12.326;2023-06-24T13:05:55;50.30;19.70
15997;DHT22;8103;51.340;12.326;2023-06-24T13:08:22;50.20;20.40
15997;DHT22;8103;51.340;12.326;2023-06-24T13:10:48;50.60;19.90
15997;DHT22;8103;51.340;12.326;2023-06-24T13:13:15;51.00;19.80
15997;DHT22;8103;51.340;12.326;2023-06-24T13:15:42;51.10;19.60
15997;DHT22;8103;51.340;12.326;2023-06-24T13:18:09;51.00;20.00
15997;DHT22;8103;51.340;12.326;2023-06-24T13:20:36;50.40;20.20
15997;DHT22;8103;51.340;12.326;2023-06-24T13:23:03;50.30;20.20
15997;DHT22;8103;51.340;12.326;2023-06-24T13:25:29;49.80;20.20
15997;DHT22;8103;51.340;12.326;2023-06-24T13:27:56;49.80;20.30
15997;DHT22;8103;51.340;12.326;2023-06-24T13:30:23;49.60;20.30
15997;DHT22;8103;51.340;12.326;2023-06-24T13:32:50;49.50;20.60
15997;DHT22;8103;51.340;12.326;2023-06-24T13:35:17;49.80;20.40
15997;DHT22;8103;51.340;12.326;2023-06-24T13:41:56;50.80;20.30
15997;DHT22;8103;51.340;12.326;2023-06-24T13:44:23;51.40;20.50
15997;DHT22;8103;51.340;12.326;2023-06-24T13:46:50;50.60;19.70
15997;DHT22;8103;51.340;12.326;2023-06-24T13:49:20;50.40;19.70
15997;DHT22;8103;51.340;12.326;2023-06-24T13:51:47;50.00;20.00
15997;DHT22;8103;51.340;12.326;2023-06-24T13:54:14;50.30;20.10
15997;DHT22;8103;51.340;12.326;2023-06-24T13:56:41;50.70;20.00
15997;DHT22;8103;51.340;12.326;2023-06-24T13:59:08;51.10;19.70
15997;DHT22;8103;51.340;12.326;2023-06-24T14:01:37;50.90;19.50
15997;DHT22;8103;51.340;12.326;2023-06-24T14:04:06;50.40;19.80
15997;DHT22;8103;51.340;12.326;2023-06-24T14:06:33;50.30;20.00
15997;DHT22;8103;51.340;12.326;2023-06-24T14:09:00;50.10;20.10
15997;DHT22;8103;51.340;12.326;2023-06-24T14:13:54;50.70;19.60
15997;DHT22;8103;51.340;12.326;2023-06-24T14:16:21;50.90;19.90
15997;DHT22;8103;51.340;12.326;2023-06-24T14:18:49;50.80;19.80
15997;DHT22;8103;51.340;12.326;2023-06-24T14:21:16;51.10;19.80
15997;DHT22;8103;51.340;12.326;2023-06-24T14:23:43;51.20;19.50
15997;DHT22;8103;51.340;12.326;2023-06-24T14:26:09;50.90;20.00
15997;DHT22;8103;51.340;12.326;2023-06-24T14:28:37;50.30;19.90
15997;DHT22;8103;51.340;12.326;2023-06-24T14:31:03;49.60;20.10
15997;DHT22;8103;51.340;12.326;2023-06-24T14:33:30;49.30;20.40
15997;DHT22;8103;51.340;12.326;2023-06-24T14:35:57;49.40;20.50
15997;DHT22;8103;51.340;12.326;2023-06-24T14:38:24;49.30;20.40
15997;DHT22;8103;51.340;12.326;2023-06-24T14:40:54;49.00;20.70
15997;DHT22;8103;51.340;12.326;2023-06-24T14:43:24;48.90;20.90
15997;DHT22;8103;51.340;12.326;2023-06-24T14:45:51;49.10;20.90
15997;DHT22;8103;51.340;12.326;2023-06-24T14:48:18;48.80;20.70
15997;DHT22;8103;51.340;12.326;2023-06-24T14:50:45;48.40;20.40
15997;DHT22;8103;51.340;12.326;2023-06-24T14:53:13;48.40;20.70
15997;DHT22;8103;51.340;12.326;2023-06-24T14:55:40;47.80;21.20
15997;DHT22;8103;51.340;12.326;2023-06-24T14:58:07;47.40;21.30
15997;DHT22;8103;51.340;12.326;2023-06-24T15:00:33;46.50;21.60
15997;DHT22;8103;51.340;12.326;2023-06-24T15:03:00;46.60;21.90
15997;DHT22;8103;51.340;12.326;2023-06-24T15:05:28;46.30;22.10
15997;DHT22;8103;51.340;12.326;2023-06-24T15:07:55;46.10;22.40
15997;DHT22;8103;51.340;12.326;2023-06-24T15:10:22;45.90;22.70
15997;DHT22;8103;51.340;12.326;2023-06-24T15:12:49;45.60;22.90
15997;DHT22;8103;51.340;12.326;2023-06-24T15:15:16;45.40;23.00
15997;DHT22;8103;51.340;12.326;2023-06-24T15:17:43;45.20;23.20
15997;DHT22;8103;51.340;12.326;2023-06-24T15:20:12;45.10;23.20
15997;DHT22;8103;51.340;12.326;2023-06-24T15:22:40;44.80;23.20
15997;DHT22;8103;51.340;12.326;2023-06-24T15:25:08;44.10;23.50
15997;DHT22;8103;51.340;12.326;2023-06-24T15:27:35;43.80;24.00
15997;DHT22;8103;51.340;12.326;2023-06-24T15:30:03;43.30;24.20
15997;DHT22;8103;51.340;12.326;2023-06-24T15:32:30;43.20;24.50
15997;DHT22;8103;51.340;12.326;2023-06-24T15:34:57;43.00;24.60
15997;DHT22;8103;51.340;12.326;2023-06-24T15:37:24;42.70;24.60
15997;DHT22;8103;51.340;12.326;2023-06-24T15:39:51;41.70;25.40
15997;DHT22;8103;51.340;12.326;2023-06-24T15:42:17;40.80;26.00
15997;DHT22;8103;51.340;12.326;2023-06-24T15:44:44;40.40;26.60
15997;DHT22;8103;51.340;12.326;2023-06-24T15:47:11;40.10;26.60
15997;DHT22;8103;51.340;12.326;2023-06-24T15:49:38;39.60;27.00
15997;DHT22;8103;51.340;12.326;2023-06-24T15:52:05;39.20;27.50
15997;DHT22;8103;51.340;12.326;2023-06-24T15:54:32;38.90;27.80
15997;DHT22;8103;51.340;12.326;2023-06-24T15:56:59;38.50;28.40
15997;DHT22;8103;51.340;12.326;2023-06-24T15:59:26;38.10;28.90
15997;DHT22;8103;51.340;12.326;2023-06-24T16:01:53;37.60;29.20
15997;DHT22;8103;51.340;12.326;2023-06-24T16:04:20;36.90;29.80
15997;DHT22;8103;51.340;12.326;2023-06-24T16:06:47;36.30;30.80
15997;DHT22;8103;51.340;12.326;2023-06-24T16:09:14;35.80;31.20
15997;DHT22;8103;51.340;12.326;2023-06-24T16:11:41;35.40;31.40
15997;DHT22;8103;51.340;12.326;2023-06-24T16:14:08;34.90;32.70
15997;DHT22;8103;51.340;12.326;2023-06-24T16:16:35;34.20;33.30
15997;DHT22;8103;51.340;12.326;2023-06-24T16:19:02;33.60;34.20
15997;DHT22;8103;51.340;12.326;2023-06-24T16:21:29;33.10;35.40
15997;DHT22;8103;51.340;12.326;2023-06-24T16:23:56;32.80;35.70
15997;DHT22;8103;51.340;12.326;2023-06-24T16:26:23;32.40;36.60
15997;DHT22;8103;51.340;12.326;2023-06-24T16:28:50;32.00;37.10
15997;DHT22;8103;51.340;12.326;2023-06-24T16:31:17;31.50;38.00
15997;DHT22;8103;51.340;12.326;2023-06-24T16:33:44;31.00;39.10
15997;DHT22;8103;51.340;12.326;2023-06-24T16:36:11;30.60;39.90
15997;DHT22;8103;51.340;12.326;2023-06-24T16:38:38;30.10;40.70
15997;DHT22;8103;51.340;12.326;2023-06-24T16:41:05;29.70;43.10
15997;DHT22;8103;51.340;12.326;2023-06-24T16:47:38;29.00;46.20
15997;DHT22;8103;51.340;12.326;2023-06-24T16:50:05;28.70;45.50
15997;DHT22;8103;51.340;12.326;2023-06-24T16:52:35;28.50;46.00
15997;DHT22;8103;51.340;12.326;2023-06-24T16:59:08;28.20;47.00
15997;DHT22;8103;51.340;12.326;2023-06-24T17:01:35;28.00;48.80
15997;DHT22;8103;51.340;12.326;2023-06-24T17:04:02;27.90;50.60